Time;durP1;ratioP1;P1;durP2;ratioP2;P2;SDS_P1;SDS_P2;PMS_P1;PMS_P2;Temp;Humidity;BMP_temperature;BMP_pressure;BME280_temperature;BME280_humidity;BME280_pressure;Samples;Min_cycle;Max_cycle;Signal;HPM_P1;HPM_P2
2024/03/04 00:02:22;;;;;;;5.03;1.20;;;;;;;23.80;nan;98955.03;7390220;19;20029;-93
2024/03/04 00:04:49;;;;;;;1.92;1.67;;;;;;;23.63;nan;98940.84;7390760;19;20074;-87
2024/03/04 00:07:15;;;;;;;2.50;1.58;;;;;;;23.55;nan;98945.88;7393822;19;20499;-82
2024/03/04 00:09:41;;;;;;;11.13;2.78;;;;;;;23.87;nan;98947.72;7397283;19;20018;-85
2024/03/04 00:12:07;;;;;;;7.95;3.53;;;;;;;24.56;nan;98956.78;7393701;19;20019;-86
2024/03/04 00:14:33;;;;;;;1.05;1.05;;;;;;;26.59;nan;98951.88;7396382;19;20021;-85
2024/03/04 00:17:00;;;;;;;1.02;1.02;;;;;;;26.72;nan;98950.59;7391556;19;20639;-88
2024/03/04 00:19:26;;;;;;;3.05;2.05;;;;;;;26.53;nan;98962.13;7392637;19;20025;-88
2024/03/04 00:21:52;;;;;;;5.47;2.88;;;;;;;25.88;nan;98966.06;7396158;19;20039;-83
2024/03/04 00:24:18;;;;;;;2.22;1.48;;;;;;;25.46;nan;98971.50;7394391;19;20018;-81
2024/03/04 00:26:44;;;;;;;4.07;0.93;;;;;;;25.40;nan;98976.75;7391821;19;20394;-85
2024/03/04 00:29:10;;;;;;;1.48;1.42;;;;;;;25.69;nan;98979.59;7394955;19;20082;-82
2024/03/04 00:31:36;;;;;;;1.75;1.65;;;;;;;25.89;nan;98978.22;7394172;19;20035;-82
2024/03/04 00:34:04;;;;;;;5.40;2.45;;;;;;;26.51;nan;98979.13;7392320;19;20018;-84
2024/03/04 00:36:30;;;;;;;1.23;1.02;;;;;;;26.69;nan;98984.00;7389867;19;20019;-82
2024/03/04 00:38:57;;;;;;;11.82;1.65;;;;;;;26.77;nan;98987.44;7390229;19;20015;-82
2024/03/04 00:41:26;;;;;;;4.50;2.15;;;;;;;26.75;nan;98995.84;7390676;19;20106;-84
2024/03/04 00:43:53;;;;;;;1.80;1.65;;;;;;;26.43;nan;98993.56;7393759;19;20465;-85
2024/03/04 00:46:21;;;;;;;2.03;1.70;;;;;;;26.63;nan;98994.25;7390977;19;20022;-82
2024/03/04 00:48:48;;;;;;;6.50;2.05;;;;;;;26.75;nan;99001.56;7390798;19;20083;-84
2024/03/04 00:51:14;;;;;;;3.25;1.70;;;;;;;26.91;nan;98997.00;7393539;19;20109;-81
2024/03/04 00:53:40;;;;;;;1.60;1.50;;;;;;;26.60;nan;99007.63;7392774;19;20014;-82
2024/03/04 00:56:07;;;;;;;7.10;1.33;;;;;;;26.95;nan;98994.41;7391515;19;20014;-88
2024/03/04 00:58:33;;;;;;;3.05;1.83;;;;;;;24.24;nan;99008.31;7390186;19;20025;-85
2024/03/04 01:01:00;;;;;;;2.15;1.40;;;;;;;23.80;nan;99006.22;7391926;19;20034;-84
2024/03/04 01:03:26;;;;;;;3.58;1.23;;;;;;;23.81;nan;99007.72;7391876;19;20078;-87
2024/03/04 01:05:52;;;;;;;6.38;2.00;;;;;;;24.01;nan;99009.38;7391726;19;20017;-84
2024/03/04 01:08:18;;;;;;;1.25;1.25;;;;;;;23.00;nan;99005.94;7393502;19;20370;-84
2024/03/04 01:10:45;;;;;;;2.42;2.22;;;;;;;22.65;nan;99009.28;7390844;19;20432;-80
2024/03/04 01:13:11;;;;;;;6.40;1.33;;;;;;;22.80;nan;99009.16;7390203;19;20022;-82
2024/03/04 01:15:37;;;;;;;3.33;3.03;;;;;;;22.77;nan;99001.78;7386596;19;20475;-81
2024/03/04 01:18:04;;;;;;;0.25;0.25;;;;;;;22.63;nan;99000.59;7387835;19;20171;-81
2024/03/04 01:20:34;;;;;;;4.10;1.92;;;;;;;23.45;nan;98992.63;7389859;19;20006;-82
2024/03/04 01:23:00;;;;;;;4.13;1.10;;;;;;;23.27;nan;98997.53;7388397;19;20032;-81
2024/03/04 01:25:26;;;;;;;2.50;1.58;;;;;;;23.72;nan;98996.28;7388605;19;20018;-82
2024/03/04 01:27:52;;;;;;;1.75;1.15;;;;;;;24.65;nan;98993.06;7393929;19;20404;-82
2024/03/04 01:30:19;;;;;;;1.92;1.83;;;;;;;24.87;nan;98988.34;7388718;19;20014;-82
2024/03/04 01:32:45;;;;;;;1.33;0.85;;;;;;;24.96;nan;98988.38;7390414;19;20356;-82
2024/03/04 01:35:11;;;;;;;4.13;2.58;;;;;;;25.12;nan;99003.84;7387298;19;20359;-81
2024/03/04 01:37:42;;;;;;;2.75;2.50;;;;;;;24.37;nan;98991.59;7389968;19;20011;-82
2024/03/04 01:40:08;;;;;;;1.10;1.10;;;;;;;24.05;nan;98998.34;7386190;19;20460;-82
2024/03/04 01:42:34;;;;;;;6.50;1.42;;;;;;;23.92;nan;98995.81;7387571;19;20011;-82
2024/03/04 01:45:00;;;;;;;0.75;0.75;;;;;;;23.77;nan;98996.03;7391022;19;20010;-82
2024/03/04 01:47:27;;;;;;;1.25;1.25;;;;;;;23.75;nan;98997.94;7398948;19;20006;-82
2024/03/04 01:49:54;;;;;;;1.15;1.15;;;;;;;23.93;nan;98996.59;7396892;19;20044;-81
2024/03/04 01:52:23;;;;;;;0.98;0.98;;;;;;;25.05;nan;98993.34;7401703;19;20033;-82
2024/03/04 01:54:53;;;;;;;2.58;1.38;;;;;;;25.21;nan;98997.41;7394914;19;20464;-81
2024/03/04 01:57:19;;;;;;;1.85;1.60;;;;;;;25.20;nan;98995.94;7393013;19;20015;-82
2024/03/04 01:59:47;;;;;;;7.20;2.10;;;;;;;25.19;nan;98996.50;7395037;19;20031;-82
2024/03/04 02:02:13;;;;;;;1.05;0.90;;;;;;;25.06;nan;98992.00;7393239;19;20018;-82
2024/03/04 02:04:41;;;;;;;5.15;1.00;;;;;;;23.78;nan;99002.47;7392811;19;20032;-81
2024/03/04 02:07:08;;;;;;;1.25;1.15;;;;;;;25.13;nan;98996.81;7397169;19;20097;-81
2024/03/04 02:09:35;;;;;;;2.80;1.20;;;;;;;25.33;nan;98994.72;7400886;19;20023;-82
2024/03/04 02:12:05;;;;;;;0.60;0.60;;;;;;;25.17;nan;98991.41;7395153;19;20014;-82
2024/03/04 02:14:31;;;;;;;2.70;1.27;;;;;;;24.99;nan;98998.59;7394211;19;20018;-81
2024/03/04 02:16:57;;;;;;;0.63;0.63;;;;;;;24.57;nan;98986.75;7393482;19;20026;-82
2024/03/04 02:19:23;;;;;;;6.10;1.17;;;;;;;24.33;nan;99004.75;7396203;19;20035;-82
2024/03/04 02:21:55;;;;;;;1.42;0.82;;;;;;;25.14;nan;98998.31;7400560;19;20018;-82
2024/03/04 02:24:21;;;;;;;1.10;1.00;;;;;;;25.34;nan;98996.97;7394438;19;20342;-82
2024/03/04 02:26:50;;;;;;;4.20;1.23;;;;;;;25.57;nan;98993.72;7391631;19;20407;-81
2024/03/04 02:29:17;;;;;;;3.85;1.10;;;;;;;25.51;nan;98994.00;7395421;19;20415;-82
2024/03/04 02:31:43;;;;;;;1.33;1.33;;;;;;;25.42;nan;98994.78;7398235;19;20014;-81
2024/03/04 02:34:11;;;;;;;0.32;0.32;;;;;;;25.37;nan;98992.94;7393939;19;20472;-81
2024/03/04 02:36:39;;;;;;;0.52;0.30;;;;;;;25.41;nan;98995.34;7394550;19;20043;-81
2024/03/04 02:39:12;;;;;;;1.58;1.40;;;;;;;25.38;nan;98997.28;7391467;19;20010;-81
2024/03/04 02:41:39;;;;;;;3.40;2.35;;;;;;;25.87;nan;99001.66;7393138;19;20011;-81
2024/03/04 02:44:06;;;;;;;9.88;2.22;;;;;;;25.78;nan;98993.09;7395424;19;20022;-82
2024/03/04 02:46:32;;;;;;;1.30;1.20;;;;;;;25.60;nan;99011.75;7393645;19;20015;-82
2024/03/04 02:48:58;;;;;;;1.38;1.30;;;;;;;22.88;nan;99009.84;7396072;19;20086;-82
2024/03/04 02:51:25;;;;;;;3.33;1.38;;;;;;;22.85;nan;99005.34;7397882;19;20015;-82
2024/03/04 02:53:51;;;;;;;1.15;0.80;;;;;;;22.82;nan;99000.81;7395116;19;20037;-82
2024/03/04 02:56:17;;;;;;;1.60;1.20;;;;;;;23.15;nan;99002.94;7396526;19;20834;-82
2024/03/04 02:58:43;;;;;;;0.77;0.77;;;;;;;23.04;nan;98999.84;7394549;19;20484;-82
2024/03/04 03:01:09;;;;;;;1.15;1.08;;;;;;;21.88;nan;99013.88;7394305;19;20036;-81
2024/03/04 03:03:35;;;;;;;5.57;2.60;;;;;;;21.60;nan;99005.66;7394307;19;20028;-81
2024/03/04 03:06:01;;;;;;;0.75;0.70;;;;;;;21.31;nan;99010.84;7396699;19;20479;-81
2024/03/04 03:08:27;;;;;;;0.70;0.68;;;;;;;19.54;nan;99013.78;7399475;19;20503;-81
2024/03/04 03:10:53;;;;;;;0.75;0.75;;;;;;;19.18;nan;99015.84;7395663;19;20035;-82
2024/03/04 03:13:20;;;;;;;0.60;0.60;;;;;;;21.44;nan;99013.44;7393631;19;20018;-81
2024/03/04 03:15:48;;;;;;;1.17;0.73;;;;;;;21.86;nan;99008.03;7391872;19;20056;-81
2024/03/04 03:18:16;;;;;;;1.50;1.00;;;;;;;22.78;nan;99003.31;7393751;19;20018;-82
2024/03/04 03:20:43;;;;;;;4.03;1.80;;;;;;;22.44;nan;99004.66;7392753;19;20022;-81
2024/03/04 03:23:09;;;;;;;3.42;1.83;;;;;;;22.24;nan;99000.06;7390802;19;20018;-82
2024/03/04 03:25:35;;;;;;;0.60;0.60;;;;;;;22.44;nan;99006.75;7392720;19;20022;-82
2024/03/04 03:28:02;;;;;;;3.28;1.60;;;;;;;22.24;nan;99002.91;7395970;19;20476;-81
2024/03/04 03:30:29;;;;;;;5.50;1.58;;;;;;;22.25;nan;99012.16;7394606;19;20015;-82
2024/03/04 03:32:55;;;;;;;3.42;2.10;;;;;;;24.23;nan;99006.81;7394704;19;20022;-81
2024/03/04 03:35:21;;;;;;;0.57;0.57;;;;;;;24.51;nan;99000.50;7390851;19;20011;-82
2024/03/04 03:37:47;;;;;;;9.85;2.40;;;;;;;24.65;nan;99001.59;7392953;19;20037;-82
2024/03/04 03:40:14;;;;;;;1.48;1.38;;;;;;;24.76;nan;99007.53;7391170;19;20022;-82
2024/03/04 03:42:41;;;;;;;1.50;0.98;;;;;;;24.86;nan;99010.41;7391911;19;20029;-82
2024/03/04 03:45:08;;;;;;;1.10;0.95;;;;;;;24.91;nan;99012.19;7391130;19;20468;-82
2024/03/04 03:47:34;;;;;;;0.93;0.77;;;;;;;24.77;nan;99009.03;7393739;19;20074;-82
2024/03/04 03:50:02;;;;;;;2.15;1.67;;;;;;;24.75;nan;99008.84;7395704;19;20348;-81
2024/03/04 03:52:31;;;;;;;0.90;0.88;;;;;;;25.29;nan;99011.53;7397904;19;20015;-82
2024/03/04 03:54:57;;;;;;;0.68;0.68;;;;;;;24.67;nan;99010.28;7392305;19;20389;-82
2024/03/04 03:57:24;;;;;;;2.42;1.98;;;;;;;24.98;nan;99011.31;7392000;19;20019;-82
2024/03/04 03:59:50;;;;;;;1.05;0.77;;;;;;;24.41;nan;99008.22;7395959;19;20381;-82
2024/03/04 04:02:16;;;;;;;2.20;1.10;;;;;;;24.76;nan;99007.53;7391563;19;20038;-81
2024/03/04 04:04:42;;;;;;;2.58;2.10;;;;;;;24.69;nan;99007.59;7391549;19;20019;-82
2024/03/04 04:07:08;;;;;;;1.08;0.98;;;;;;;24.90;nan;99005.03;7394420;19;20013;-82
2024/03/04 04:09:34;;;;;;;1.67;1.58;;;;;;;25.11;nan;99005.22;7393790;19;20500;-82
2024/03/04 04:12:00;;;;;;;1.23;1.20;;;;;;;25.09;nan;99004.31;7392723;19;20479;-82
2024/03/04 04:14:26;;;;;;;5.40;1.30;;;;;;;25.20;nan;99004.47;7392233;19;20115;-81
2024/03/04 04:16:52;;;;;;;1.80;1.15;;;;;;;25.31;nan;99015.31;7389064;19;20376;-82
2024/03/04 04:19:19;;;;;;;0.57;0.57;;;;;;;25.29;nan;99018.00;7394099;19;20123;-82
2024/03/04 04:21:45;;;;;;;7.97;1.65;;;;;;;25.16;nan;99015.56;7395343;19;20014;-82
2024/03/04 04:24:11;;;;;;;0.40;0.40;;;;;;;25.07;nan;99013.44;7391579;19;20443;-82
2024/03/04 04:26:37;;;;;;;1.65;1.55;;;;;;;25.09;nan;99007.91;7388739;19;20031;-81
2024/03/04 04:29:03;;;;;;;1.67;1.55;;;;;;;25.13;nan;99016.75;7391711;19;20496;-82
2024/03/04 04:31:29;;;;;;;11.07;2.88;;;;;;;25.41;nan;99018.16;7392267;19;20500;-81
2024/03/04 04:33:55;;;;;;;0.75;0.73;;;;;;;25.11;nan;99022.31;7393254;19;20054;-81
2024/03/04 04:36:21;;;;;;;1.10;1.05;;;;;;;25.21;nan;99017.38;7391505;19;20047;-82
2024/03/04 04:38:48;;;;;;;1.77;1.33;;;;;;;24.74;nan;99021.59;7394776;19;20026;-81
2024/03/04 04:41:14;;;;;;;2.05;1.20;;;;;;;24.73;nan;99022.19;7390691;19;20028;-83
2024/03/04 04:43:40;;;;;;;0.95;0.93;;;;;;;24.73;nan;99022.19;7391989;19;20014;-82
2024/03/04 04:46:06;;;;;;;5.90;1.50;;;;;;;24.65;nan;99021.53;7390102;19;20024;-82
2024/03/04 04:48:33;;;;;;;1.40;1.30;;;;;;;24.74;nan;99021.59;7393805;19;20066;-82
2024/03/04 04:51:00;;;;;;;1.35;1.10;;;;;;;24.68;nan;99028.91;7391501;19;20359;-82
2024/03/04 04:53:26;;;;;;;2.72;1.40;;;;;;;24.70;nan;99026.22;7392242;19;20025;-82
2024/03/04 04:55:52;;;;;;;5.05;1.20;;;;;;;24.61;nan;99029.75;7388830;19;20357;-82
2024/03/04 04:58:18;;;;;;;6.60;1.52;;;;;;;24.58;nan;99025.28;7389470;19;20014;-82
2024/03/04 05:00:45;;;;;;;2.38;1.35;;;;;;;24.74;nan;99032.22;7387909;19;20027;-82
2024/03/04 05:03:11;;;;;;;4.30;1.40;;;;;;;24.86;nan;99027.50;7388040;19;20010;-82
2024/03/04 05:05:37;;;;;;;0.95;0.57;;;;;;;25.58;nan;99027.34;7389026;19;20102;-82
2024/03/04 05:08:05;;;;;;;0.85;0.85;;;;;;;25.95;nan;99027.16;7391968;19;20014;-81
2024/03/04 05:10:31;;;;;;;10.57;2.63;;;;;;;26.02;nan;99026.25;7389981;19;20014;-82
2024/03/04 05:12:57;;;;;;;0.75;0.75;;;;;;;25.28;nan;99039.28;7390303;19;20054;-82
2024/03/04 05:15:25;;;;;;;2.33;1.35;;;;;;;25.00;nan;99031.44;7390224;19;20467;-82
2024/03/04 05:17:51;;;;;;;4.30;3.15;;;;;;;25.03;nan;99035.94;7388712;19;20026;-82
2024/03/04 05:20:17;;;;;;;3.10;0.93;;;;;;;24.96;nan;99031.13;7386421;19;20018;-81
2024/03/04 05:22:43;;;;;;;3.40;2.22;;;;;;;24.75;nan;99036.59;7393336;19;20018;-82
2024/03/04 05:25:09;;;;;;;0.98;0.98;;;;;;;24.53;nan;99034.81;7387284;19;20022;-82
2024/03/04 05:27:35;;;;;;;6.35;1.48;;;;;;;24.24;nan;99037.53;7389113;19;20021;-82
2024/03/04 05:30:03;;;;;;;1.95;1.77;;;;;;;24.14;nan;99033.13;7390781;19;20026;-82
2024/03/04 05:32:29;;;;;;;1.02;0.88;;;;;;;23.75;nan;99037.75;7390431;19;20022;-81
2024/03/04 05:34:55;;;;;;;4.13;1.38;;;;;;;23.95;nan;99039.41;7390557;19;20468;-82
2024/03/04 05:37:21;;;;;;;0.80;0.80;;;;;;;24.53;nan;99037.69;7388926;19;20030;-82
2024/03/04 05:39:48;;;;;;;3.90;1.52;;;;;;;24.65;nan;99032.91;7387078;19;20014;-82
2024/03/04 05:42:15;;;;;;;0.75;0.65;;;;;;;24.66;nan;99031.59;7387401;19;20080;-82
2024/03/04 05:44:41;;;;;;;1.13;0.75;;;;;;;24.59;nan;99038.16;7388192;19;20014;-82
2024/03/04 05:47:07;;;;;;;1.48;0.88;;;;;;;25.07;nan;99036.25;7390338;19;20037;-82
2024/03/04 05:49:35;;;;;;;1.35;1.25;;;;;;;25.23;nan;99031.78;7389892;19;20026;-82
2024/03/04 05:52:02;;;;;;;4.22;1.67;;;;;;;25.55;nan;99027.78;7392833;19;20022;-82
2024/03/04 05:54:28;;;;;;;0.88;0.88;;;;;;;25.49;nan;99036.63;7388705;19;20116;-82
2024/03/04 05:56:54;;;;;;;0.68;0.68;;;;;;;25.21;nan;99039.44;7386477;19;20014;-82
2024/03/04 05:59:20;;;;;;;2.80;0.65;;;;;;;25.14;nan;99029.69;7387873;19;20495;-82
2024/03/04 06:01:46;;;;;;;1.00;0.50;;;;;;;25.22;nan;99033.13;7387768;19;20011;-81
2024/03/04 06:04:12;;;;;;;0.75;0.75;;;;;;;25.22;nan;99035.22;7388047;19;20018;-82
2024/03/04 06:06:38;;;;;;;1.13;1.13;;;;;;;25.23;nan;99031.78;7388594;19;20030;-82
2024/03/04 06:09:08;;;;;;;1.48;1.35;;;;;;;25.12;nan;99032.34;7393360;19;20043;-82
2024/03/04 06:11:34;;;;;;;1.55;1.40;;;;;;;25.09;nan;99047.81;7389356;19;20460;-82
2024/03/04 06:14:00;;;;;;;1.50;1.38;;;;;;;25.13;nan;99045.25;7389389;19;20491;-81
2024/03/04 06:16:26;;;;;;;1.30;1.20;;;;;;;25.22;nan;99038.84;7389841;19;20014;-81
2024/03/04 06:18:52;;;;;;;0.63;0.63;;;;;;;24.99;nan;99035.63;7387812;19;20039;-82
2024/03/04 06:21:18;;;;;;;2.55;1.80;;;;;;;25.10;nan;99040.75;7389929;19;20015;-85
2024/03/04 06:23:44;;;;;;;2.17;1.95;;;;;;;25.05;nan;99044.66;7390083;19;20104;-84
2024/03/04 06:26:11;;;;;;;3.50;1.33;;;;;;;25.09;nan;99044.94;7387058;19;20553;-83
2024/03/04 06:28:38;;;;;;;0.68;0.68;;;;;;;25.08;nan;99037.75;7386602;19;20368;-83
2024/03/04 06:31:05;;;;;;;1.92;1.88;;;;;;;24.71;nan;99044.81;7388543;19;20052;-83
2024/03/04 06:33:31;;;;;;;3.15;1.45;;;;;;;24.95;nan;99035.31;7398983;19;20014;-84
2024/03/04 06:35:57;;;;;;;6.95;3.45;;;;;;;24.95;nan;99035.31;7392180;19;20010;-83
2024/03/04 06:38:25;;;;;;;4.60;1.35;;;;;;;24.79;nan;99039.75;7391177;19;20030;-83
2024/03/04 06:40:51;;;;;;;3.10;1.38;;;;;;;24.32;nan;99037.44;7393164;19;20049;-83
2024/03/04 06:43:17;;;;;;;1.23;1.13;;;;;;;24.61;nan;99041.16;7392915;19;20460;-84
2024/03/04 06:45:44;;;;;;;2.55;2.35;;;;;;;24.95;nan;99032.47;7392073;19;20015;-83
2024/03/04 06:48:10;;;;;;;2.85;1.23;;;;;;;24.95;nan;99035.31;7400705;19;20026;-83
2024/03/04 06:50:36;;;;;;;2.05;0.93;;;;;;;24.77;nan;99039.59;7396561;19;20018;-83
2024/03/04 06:53:03;;;;;;;3.50;1.27;;;;;;;25.13;nan;99039.56;7395239;19;20504;-84
2024/03/04 06:55:29;;;;;;;2.03;1.20;;;;;;;25.24;nan;99038.97;7392681;19;20031;-83
2024/03/04 06:57:55;;;;;;;2.53;2.42;;;;;;;25.37;nan;99041.41;7391405;19;20010;-82
2024/03/04 07:00:21;;;;;;;3.90;2.35;;;;;;;25.35;nan;99035.56;7393096;19;20022;-83
2024/03/04 07:02:47;;;;;;;2.83;1.73;;;;;;;25.32;nan;99039.59;7393171;19;20022;-83
2024/03/04 07:05:13;;;;;;;2.22;1.33;;;;;;;24.92;nan;99045.06;7394095;19;20085;-83
2024/03/04 07:07:39;;;;;;;3.17;2.15;;;;;;;24.52;nan;99039.00;7397622;19;20494;-83
2024/03/04 07:10:07;;;;;;;2.97;2.28;;;;;;;23.99;nan;99046.19;7397123;19;20018;-83
2024/03/04 07:12:34;;;;;;;13.23;2.95;;;;;;;24.17;nan;99046.19;7395260;19;20015;-83
2024/03/04 07:15:00;;;;;;;5.20;2.92;;;;;;;24.28;nan;99042.78;7394267;19;20022;-83
2024/03/04 07:17:26;;;;;;;2.33;2.22;;;;;;;24.19;nan;99032.09;7392401;19;20013;-83
2024/03/04 07:19:53;;;;;;;1.63;1.52;;;;;;;24.27;nan;99046.97;7396274;19;20022;-83
2024/03/04 07:22:19;;;;;;;17.02;2.25;;;;;;;24.18;nan;99039.88;7396127;19;20022;-83
2024/03/04 07:24:45;;;;;;;6.20;3.05;;;;;;;24.21;nan;99043.66;7392294;19;20373;-83
2024/03/04 07:27:11;;;;;;;4.28;3.88;;;;;;;24.36;nan;99038.50;7393634;19;20037;-84
2024/03/04 07:29:38;;;;;;;5.13;3.78;;;;;;;24.46;nan;99044.22;7397871;19;20014;-83
2024/03/04 07:32:04;;;;;;;2.10;1.95;;;;;;;24.68;nan;99043.13;7391946;19;20010;-83
2024/03/04 07:34:30;;;;;;;11.07;3.10;;;;;;;24.86;nan;99050.28;7394129;19;20025;-83
2024/03/04 07:36:57;;;;;;;6.70;2.35;;;;;;;25.08;nan;99046.28;7393414;19;20358;-84
2024/03/04 07:39:23;;;;;;;7.93;3.28;;;;;;;25.14;nan;99046.78;7397137;19;20011;-83
2024/03/04 07:41:50;;;;;;;2.53;2.05;;;;;;;24.79;nan;99049.06;7394283;19;20011;-83
2024/03/04 07:44:17;;;;;;;4.43;2.63;;;;;;;24.77;nan;99048.91;7394221;19;20018;-83
2024/03/04 07:46:44;;;;;;;4.20;2.38;;;;;;;24.75;nan;99045.88;7391015;19;20031;-83
2024/03/04 07:49:10;;;;;;;4.20;2.17;;;;;;;24.91;nan;99046.38;7395301;19;20023;-83
2024/03/04 07:51:36;;;;;;;3.83;2.85;;;;;;;24.96;nan;99048.22;7396707;19;20035;-84
2024/03/04 07:54:04;;;;;;;6.88;4.00;;;;;;;25.10;nan;99046.44;7392932;19;20109;-83
2024/03/04 07:56:34;;;;;;;10.57;5.95;;;;;;;25.10;nan;99045.72;7392548;19;20010;-83
2024/03/04 07:59:00;;;;;;;5.80;2.60;;;;;;;25.12;nan;99049.44;7395671;19;20107;-83
2024/03/04 08:01:26;;;;;;;6.18;2.55;;;;;;;25.15;nan;99053.97;7393847;19;20018;-83
2024/03/04 08:03:52;;;;;;;5.90;2.38;;;;;;;25.25;nan;99049.03;7394172;19;20014;-83
2024/03/04 08:06:20;;;;;;;8.38;2.47;;;;;;;25.42;nan;99036.78;7389560;19;20010;-83
2024/03/04 08:08:48;;;;;;;3.15;2.65;;;;;;;25.16;nan;99037.63;7397206;19;20044;-83
2024/03/04 08:11:15;;;;;;;5.28;4.20;;;;;;;25.19;nan;99039.25;7394632;19;20023;-84
2024/03/04 08:13:41;;;;;;;22.33;3.38;;;;;;;25.26;nan;99039.13;7391399;19;20018;-83
2024/03/04 08:16:07;;;;;;;3.05;2.83;;;;;;;25.76;nan;99033.66;7390924;19;20019;-83
2024/03/04 08:18:33;;;;;;;5.07;3.17;;;;;;;25.85;nan;99026.44;7391598;19;20045;-83
2024/03/04 08:20:59;;;;;;;4.38;3.83;;;;;;;26.03;nan;99024.91;7392168;19;20018;-83
2024/03/04 08:23:25;;;;;;;3.33;1.58;;;;;;;25.86;nan;99033.66;7390045;19;20025;-84
2024/03/04 08:25:51;;;;;;;9.88;3.65;;;;;;;25.87;nan;99023.72;7388569;19;20472;-83
2024/03/04 08:28:18;;;;;;;4.88;3.90;;;;;;;25.98;nan;99028.81;7392532;19;20534;-83
2024/03/04 08:30:44;;;;;;;10.00;3.45;;;;;;;26.11;nan;99028.38;7393184;19;20018;-83
2024/03/04 08:33:10;;;;;;;14.75;4.68;;;;;;;26.25;nan;99035.09;7392308;19;20366;-84
2024/03/04 08:35:36;;;;;;;4.03;2.03;;;;;;;26.65;nan;99032.28;7390877;19;20018;-83
2024/03/04 08:38:02;;;;;;;10.60;5.05;;;;;;;26.63;nan;99037.84;7388704;19;20025;-82
2024/03/04 08:40:30;;;;;;;16.38;4.70;;;;;;;26.71;nan;99041.25;7390969;19;20384;-82
2024/03/04 08:42:57;;;;;;;10.50;3.55;;;;;;;26.69;nan;99023.97;7391118;19;20011;-83
2024/03/04 08:45:23;;;;;;;2.22;1.70;;;;;;;26.98;nan;99033.19;7389058;19;20006;-83
2024/03/04 08:47:49;;;;;;;3.53;3.03;;;;;;;26.74;nan;99034.38;7390066;19;20036;-83
2024/03/04 08:50:15;;;;;;;6.07;2.67;;;;;;;26.66;nan;99028.03;7391658;19;20017;-84
2024/03/04 08:52:41;;;;;;;5.68;3.10;;;;;;;26.69;nan;99026.09;7396536;19;20014;-82
2024/03/04 08:55:07;;;;;;;2.70;2.50;;;;;;;26.70;nan;99033.31;7388919;19;20022;-83
2024/03/04 08:57:34;;;;;;;1.08;1.08;;;;;;;26.79;nan;99036.13;7390909;19;20023;-83
2024/03/04 09:00:00;;;;;;;1.75;1.40;;;;;;;27.07;nan;99025.19;7390566;19;20018;-84
2024/03/04 09:02:26;;;;;;;5.45;1.17;;;;;;;27.34;nan;99029.22;7390128;19;20036;-83
2024/03/04 09:04:52;;;;;;;2.10;1.42;;;;;;;27.39;nan;99021.69;7389608;19;20577;-83
2024/03/04 09:07:18;;;;;;;0.90;0.90;;;;;;;27.48;nan;99018.72;7393153;19;20011;-84
2024/03/04 09:09:50;;;;;;;1.70;1.60;;;;;;;27.57;nan;99022.91;7390431;19;20362;-84
2024/03/04 09:12:17;;;;;;;2.70;1.50;;;;;;;27.56;nan;99021.41;7390830;19;20010;-84
2024/03/04 09:14:43;;;;;;;3.95;1.60;;;;;;;27.95;nan;99018.94;7388390;19;20555;-83
2024/03/04 09:17:09;;;;;;;6.60;2.15;;;;;;;27.60;nan;99018.81;7390507;19;20043;-83
2024/03/04 09:19:39;;;;;;;1.70;0.98;;;;;;;27.66;nan;99013.47;7389583;19;20022;-84
2024/03/04 09:22:05;;;;;;;6.90;2.38;;;;;;;27.68;nan;99011.50;7392886;19;20583;-84
2024/03/04 09:24:31;;;;;;;1.77;1.67;;;;;;;27.77;nan;99016.41;7388460;19;20021;-83
2024/03/04 09:26:57;;;;;;;3.47;2.05;;;;;;;27.71;nan;99007.41;7389440;19;20023;-83
2024/03/04 09:29:23;;;;;;;2.45;2.08;;;;;;;27.88;nan;99011.31;7390501;19;20092;-83
2024/03/04 09:31:51;;;;;;;5.82;1.40;;;;;;;27.77;nan;99004.19;7389243;19;20094;-84
2024/03/04 09:34:17;;;;;;;0.90;0.88;;;;;;;27.62;nan;99010.34;7388740;19;20018;-84
2024/03/04 09:36:43;;;;;;;3.85;1.95;;;;;;;27.73;nan;99003.94;7390598;19;20021;-84
2024/03/04 09:39:09;;;;;;;2.92;1.45;;;;;;;27.81;nan;99013.03;7389318;19;20357;-84
2024/03/04 09:41:39;;;;;;;0.75;0.68;;;;;;;27.85;nan;99010.47;7391212;19;20022;-84
2024/03/04 09:44:05;;;;;;;4.53;1.52;;;;;;;28.58;nan;99010.19;7389803;19;20026;-85
2024/03/04 09:46:35;;;;;;;0.90;0.68;;;;;;;28.68;nan;99010.03;7391849;19;20053;-87
2024/03/04 09:49:02;;;;;;;4.30;1.50;;;;;;;28.57;nan;99005.03;7393389;19;20480;-87
2024/03/04 09:51:30;;;;;;;2.42;1.33;;;;;;;29.34;nan;99005.53;7394094;19;20014;-86
2024/03/04 09:53:57;;;;;;;2.28;1.55;;;;;;;29.53;nan;99001.59;7391645;19;20594;-87
2024/03/04 09:56:24;;;;;;;0.52;0.52;;;;;;;29.47;nan;99007.75;7388281;19;20014;-86
2024/03/04 09:58:50;;;;;;;5.78;1.98;;;;;;;29.59;nan;99001.94;7389371;19;20026;-87
2024/03/04 10:01:18;;;;;;;3.60;1.10;;;;;;;29.37;nan;98992.78;7389095;19;20117;-85
2024/03/04 10:03:44;;;;;;;3.50;1.08;;;;;;;29.51;nan;98993.63;7392010;19;20019;-85
2024/03/04 10:06:11;;;;;;;1.90;0.52;;;;;;;29.86;nan;98985.66;7388312;19;20018;-84
2024/03/04 10:08:37;;;;;;;5.97;1.67;;;;;;;29.58;nan;98988.97;7398903;19;20022;-85
2024/03/04 10:11:03;;;;;;;2.05;1.05;;;;;;;28.96;nan;98985.97;7396900;19;20410;-85
2024/03/04 10:13:30;;;;;;;0.75;0.40;;;;;;;28.82;nan;98988.75;7398536;19;20022;-85
2024/03/04 10:15:56;;;;;;;0.82;0.82;;;;;;;28.76;nan;98984.75;7393918;19;20301;-85
2024/03/04 10:18:22;;;;;;;2.58;1.45;;;;;;;28.90;nan;98988.47;7394352;19;20015;-87
2024/03/04 10:20:54;;;;;;;0.65;0.57;;;;;;;29.06;nan;98978.00;7396276;19;20017;-86
2024/03/04 10:23:20;;;;;;;6.18;1.48;;;;;;;29.04;nan;98970.00;7394291;19;20010;-86
2024/03/04 10:25:46;;;;;;;1.40;1.23;;;;;;;29.52;nan;98975.00;7395392;19;20337;-87
2024/03/04 10:28:14;;;;;;;1.85;0.63;;;;;;;29.81;nan;98969.56;7398272;19;20019;-86
2024/03/04 10:30:40;;;;;;;3.10;2.00;;;;;;;29.75;nan;98972.09;7396784;19;20019;-83
2024/03/04 10:33:06;;;;;;;1.77;1.67;;;;;;;29.48;nan;98969.03;7395121;19;20026;-85
2024/03/04 10:35:32;;;;;;;1.92;1.25;;;;;;;29.06;nan;98960.78;7399641;19;20073;-84
2024/03/04 10:38:01;;;;;;;2.67;0.52;;;;;;;29.03;nan;98956.31;7394111;19;20046;-81
2024/03/04 10:40:27;;;;;;;1.80;0.40;;;;;;;29.06;nan;98955.78;7394748;19;20047;-89
2024/03/04 10:42:59;;;;;;;1.27;0.35;;;;;;;28.54;nan;98950.47;7395665;19;20019;-91
2024/03/04 10:45:31;;;;;;;0.88;0.88;;;;;;;28.24;nan;98951.44;7396545;19;20022;-85
2024/03/04 10:48:01;;;;;;;0.63;0.35;;;;;;;29.32;nan;98948.03;7396515;19;20018;-91
2024/03/04 10:50:29;;;;;;;0.98;0.73;;;;;;;29.01;nan;98947.59;7401436;19;20010;-92
2024/03/04 10:52:56;;;;;;;1.63;0.73;;;;;;;29.03;nan;98944.84;7395312;19;20490;-83
2024/03/04 10:55:22;;;;;;;0.28;0.28;;;;;;;29.20;nan;98942.31;7397418;19;20022;-83
2024/03/04 10:57:56;;;;;;;18.58;1.20;;;;;;;29.62;nan;98935.44;7392464;19;20014;-84
2024/03/04 11:00:25;;;;;;;7.07;0.88;;;;;;;29.51;nan;98933.38;7390466;19;20026;-83
2024/03/04 11:03:09;;;;;;;2.53;1.25;;;;;;;29.39;nan;98946.28;7393115;19;20507;-82
2024/03/04 11:05:39;;;;;;;2.30;0.70;;;;;;;30.16;nan;98937.00;7391029;19;20015;-85
2024/03/04 11:08:15;;;;;;;3.28;1.38;;;;;;;30.27;nan;98933.31;7397490;19;20015;-83
2024/03/04 11:10:47;;;;;;;0.80;0.80;;;;;;;29.82;nan;98945.19;7393874;19;20348;-84
2024/03/04 11:13:34;;;;;;;1.48;0.68;;;;;;;29.90;nan;98937.06;7395552;19;20018;-83
2024/03/04 11:16:11;;;;;;;1.10;0.45;;;;;;;30.30;nan;98943.53;7394773;19;20018;-82
2024/03/04 11:19:01;;;;;;;9.55;0.73;;;;;;;30.27;nan;98930.44;7389077;19;20014;-81
2024/03/04 11:21:28;;;;;;;0.47;0.47;;;;;;;30.41;nan;98922.59;7394830;19;20026;-84
2024/03/04 11:23:55;;;;;;;2.63;0.32;;;;;;;30.30;nan;98926.31;7392217;19;20010;-81
2024/03/04 11:26:31;;;;;;;1.35;0.65;;;;;;;30.32;nan;98932.19;7393725;19;20074;-91
2024/03/04 11:32:52;;;;;;;1.92;1.48;;;;;;;30.04;nan;98919.84;7390485;19;20168;-86
2024/03/04 11:35:36;;;;;;;5.20;1.30;;;;;;;30.31;nan;98914.19;7393942;19;20025;-94
2024/03/04 11:38:07;;;;;;;9.50;1.05;;;;;;;30.37;nan;98908.78;7396716;19;20011;-83
2024/03/04 11:40:34;;;;;;;0.33;0.33;;;;;;;31.98;nan;98898.97;7390522;19;20022;-84
2024/03/04 11:43:00;;;;;;;1.23;0.68;;;;;;;32.52;nan;98904.41;7390809;19;20384;-81
2024/03/04 11:45:34;;;;;;;5.35;0.50;;;;;;;32.16;nan;98896.94;7389811;19;20021;-84
2024/03/04 11:48:01;;;;;;;0.90;0.90;;;;;;;31.46;nan;98896.41;7397096;19;20014;-82
2024/03/04 11:50:48;;;;;;;1.00;0.38;;;;;;;31.36;nan;98885.88;7396091;19;20057;-82
2024/03/04 11:56:42;;;;;;;4.85;1.05;;;;;;;31.94;nan;98887.25;7392897;19;20023;-53